sensor_id;sensor_type;location;lat;lon;timestamp;P1;durP1;ratioP1;P2;durP2;ratioP2
3571;SDS011;7958;53.024;12.970;2023-07-31T00:01:33;3.50;;;2.50;;
3571;SDS011;7958;53.024;12.970;2023-07-31T00:04:00;2.30;;;2.13;;
3571;SDS011;7958;53.024;12.970;2023-07-31T00:06:26;2.70;;;2.13;;
3571;SDS011;7958;53.024;12.970;2023-07-31T00:08:53;3.37;;;2.00;;
3571;SDS011;7958;53.024;12.970;2023-07-31T00:11:19;3.13;;;2.40;;
3571;SDS011;7958;53.024;12.970;2023-07-31T00:13:47;15.13;;;2.90;;
3571;SDS011;7958;53.024;12.970;2023-07-31T00:16:14;7.60;;;2.90;;
3571;SDS011;7958;53.024;12.970;2023-07-31T00:18:40;6.50;;;2.33;;
3571;SDS011;7958;53.024;12.970;2023-07-31T00:21:07;3.70;;;2.80;;
3571;SDS011;7958;53.024;12.970;2023-07-31T00:23:33;3.23;;;2.80;;
3571;SDS011;7958;53.024;12.970;2023-07-31T00:26:00;4.47;;;2.37;;
3571;SDS011;7958;53.024;12.970;2023-07-31T00:28:26;6.40;;;2.73;;
3571;SDS011;7958;53.024;12.970;2023-07-31T00:30:55;4.70;;;2.80;;
3571;SDS011;7958;53.024;12.970;2023-07-31T00:33:21;4.57;;;2.50;;
3571;SDS011;7958;53.024;12.970;2023-07-31T00:35:48;4.00;;;3.00;;
3571;SDS011;7958;53.024;12.970;2023-07-31T00:38:14;3.57;;;2.83;;
3571;SDS011;7958;53.024;12.970;2023-07-31T00:40:41;4.13;;;2.43;;
3571;SDS011;7958;53.024;12.970;2023-07-31T00:43:07;6.33;;;3.17;;
3571;SDS011;7958;53.024;12.970;2023-07-31T00:45:34;8.70;;;3.20;;
3571;SDS011;7958;53.024;12.970;2023-07-31T00:48:02;4.90;;;2.90;;
3571;SDS011;7958;53.024;12.970;2023-07-31T00:50:31;3.73;;;3.33;;
3571;SDS011;7958;53.024;12.970;2023-07-31T00:52:57;4.27;;;2.77;;
3571;SDS011;7958;53.024;12.970;2023-07-31T00:55:24;4.90;;;3.00;;
3571;SDS011;7958;53.024;12.970;2023-07-31T00:57:51;5.50;;;2.90;;
3571;SDS011;7958;53.024;12.970;2023-07-31T01:00:20;4.10;;;2.80;;
3571;SDS011;7958;53.024;12.970;2023-07-31T01:02:47;5.73;;;3.03;;
3571;SDS011;7958;53.024;12.970;2023-07-31T01:05:17;4.77;;;2.60;;
3571;SDS011;7958;53.024;12.970;2023-07-31T01:07:49;3.60;;;2.33;;
3571;SDS011;7958;53.024;12.970;2023-07-31T01:10:19;5.80;;;2.67;;
3571;SDS011;7958;53.024;12.970;2023-07-31T01:12:47;3.50;;;2.87;;
3571;SDS011;7958;53.024;12.970;2023-07-31T01:15:14;4.70;;;3.17;;
3571;SDS011;7958;53.024;12.970;2023-07-31T01:17:42;5.33;;;2.83;;
3571;SDS011;7958;53.024;12.970;2023-07-31T01:20:10;9.33;;;3.27;;
3571;SDS011;7958;53.024;12.970;2023-07-31T01:22:49;6.63;;;2.70;;
3571;SDS011;7958;53.024;12.970;2023-07-31T01:25:35;4.40;;;2.83;;
3571;SDS011;7958;53.024;12.970;2023-07-31T01:28:17;8.93;;;2.57;;
3571;SDS011;7958;53.024;12.970;2023-07-31T01:30:47;3.93;;;2.70;;
3571;SDS011;7958;53.024;12.970;2023-07-31T01:33:14;8.03;;;2.40;;
3571;SDS011;7958;53.024;12.970;2023-07-31T01:35:44;5.83;;;3.07;;
3571;SDS011;7958;53.024;12.970;2023-07-31T01:38:11;2.40;;;2.20;;
3571;SDS011;7958;53.024;12.970;2023-07-31T01:40:40;4.27;;;2.60;;
3571;SDS011;7958;53.024;12.970;2023-07-31T01:43:08;2.43;;;2.23;;
3571;SDS011;7958;53.024;12.970;2023-07-31T01:45:35;2.80;;;2.20;;
3571;SDS011;7958;53.024;12.970;2023-07-31T01:48:01;5.47;;;2.43;;
3571;SDS011;7958;53.024;12.970;2023-07-31T01:50:28;4.90;;;2.40;;
3571;SDS011;7958;53.024;12.970;2023-07-31T01:52:54;5.73;;;2.77;;
3571;SDS011;7958;53.024;12.970;2023-07-31T01:55:21;5.73;;;2.27;;
3571;SDS011;7958;53.024;12.970;2023-07-31T01:57:47;6.47;;;2.63;;
3571;SDS011;7958;53.024;12.970;2023-07-31T02:00:16;6.67;;;2.73;;
3571;SDS011;7958;53.024;12.970;2023-07-31T02:02:42;3.30;;;2.60;;
3571;SDS011;7958;53.024;12.970;2023-07-31T02:05:09;4.70;;;2.27;;
3571;SDS011;7958;53.024;12.970;2023-07-31T02:07:35;3.73;;;2.37;;
3571;SDS011;7958;53.024;12.970;2023-07-31T02:10:02;8.30;;;2.90;;
3571;SDS011;7958;53.024;12.970;2023-07-31T02:12:29;4.73;;;2.60;;
3571;SDS011;7958;53.024;12.970;2023-07-31T02:17:25;3.30;;;2.47;;
3571;SDS011;7958;53.024;12.970;2023-07-31T02:19:52;2.50;;;2.10;;
3571;SDS011;7958;53.024;12.970;2023-07-31T02:22:19;5.00;;;2.30;;
3571;SDS011;7958;53.024;12.970;2023-07-31T02:24:46;2.30;;;2.13;;
3571;SDS011;7958;53.024;12.970;2023-07-31T02:27:12;3.30;;;2.10;;
3571;SDS011;7958;53.024;12.970;2023-07-31T02:29:42;2.80;;;2.50;;
3571;SDS011;7958;53.024;12.970;2023-07-31T02:32:08;3.40;;;2.27;;
3571;SDS011;7958;53.024;12.970;2023-07-31T02:34:37;2.33;;;2.17;;
3571;SDS011;7958;53.024;12.970;2023-07-31T02:37:04;2.50;;;2.30;;
3571;SDS011;7958;53.024;12.970;2023-07-31T02:39:30;4.67;;;2.00;;
3571;SDS011;7958;53.024;12.970;2023-07-31T02:41:57;5.03;;;2.63;;
3571;SDS011;7958;53.024;12.970;2023-07-31T02:44:23;5.10;;;2.80;;
3571;SDS011;7958;53.024;12.970;2023-07-31T02:46:50;6.93;;;2.10;;
3571;SDS011;7958;53.024;12.970;2023-07-31T02:49:17;7.30;;;2.90;;
3571;SDS011;7958;53.024;12.970;2023-07-31T02:51:45;9.63;;;2.53;;
3571;SDS011;7958;53.024;12.970;2023-07-31T02:54:14;4.27;;;2.70;;
3571;SDS011;7958;53.024;12.970;2023-07-31T02:56:40;2.90;;;2.57;;
3571;SDS011;7958;53.024;12.970;2023-07-31T02:59:07;4.77;;;2.73;;
3571;SDS011;7958;53.024;12.970;2023-07-31T03:01:33;4.17;;;2.87;;
3571;SDS011;7958;53.024;12.970;2023-07-31T03:04:00;3.53;;;2.60;;
3571;SDS011;7958;53.024;12.970;2023-07-31T03:06:26;2.97;;;2.77;;
3571;SDS011;7958;53.024;12.970;2023-07-31T03:08:57;5.63;;;2.33;;
3571;SDS011;7958;53.024;12.970;2023-07-31T03:11:24;3.03;;;2.73;;
3571;SDS011;7958;53.024;12.970;2023-07-31T03:13:50;4.70;;;2.40;;
3571;SDS011;7958;53.024;12.970;2023-07-31T03:16:17;4.20;;;2.97;;
3571;SDS011;7958;53.024;12.970;2023-07-31T03:18:47;3.77;;;2.63;;
3571;SDS011;7958;53.024;12.970;2023-07-31T03:21:13;4.53;;;2.37;;
3571;SDS011;7958;53.024;12.970;2023-07-31T03:23:40;3.70;;;2.43;;
3571;SDS011;7958;53.024;12.970;2023-07-31T03:26:09;4.43;;;2.47;;
3571;SDS011;7958;53.024;12.970;2023-07-31T03:28:36;5.70;;;2.60;;
3571;SDS011;7958;53.024;12.970;2023-07-31T03:31:02;4.37;;;2.20;;
3571;SDS011;7958;53.024;12.970;2023-07-31T03:33:29;6.70;;;2.63;;
3571;SDS011;7958;53.024;12.970;2023-07-31T03:35:55;4.43;;;2.70;;
3571;SDS011;7958;53.024;12.970;2023-07-31T03:38:22;11.23;;;2.77;;
3571;SDS011;7958;53.024;12.970;2023-07-31T03:40:48;4.00;;;2.80;;
3571;SDS011;7958;53.024;12.970;2023-07-31T03:43:16;7.17;;;2.60;;
3571;SDS011;7958;53.024;12.970;2023-07-31T03:45:43;4.13;;;2.60;;
3571;SDS011;7958;53.024;12.970;2023-07-31T03:48:09;4.23;;;2.97;;
3571;SDS011;7958;53.024;12.970;2023-07-31T03:50:36;6.70;;;3.33;;
3571;SDS011;7958;53.024;12.970;2023-07-31T03:53:02;4.07;;;3.00;;
3571;SDS011;7958;53.024;12.970;2023-07-31T03:55:29;6.97;;;2.90;;
3571;SDS011;7958;53.024;12.970;2023-07-31T03:57:55;5.07;;;3.50;;
3571;SDS011;7958;53.024;12.970;2023-07-31T04:00:23;6.90;;;3.53;;
3571;SDS011;7958;53.024;12.970;2023-07-31T04:02:52;11.47;;;3.90;;
3571;SDS011;7958;53.024;12.970;2023-07-31T04:05:19;8.00;;;3.70;;
3571;SDS011;7958;53.024;12.970;2023-07-31T04:07:46;3.80;;;3.50;;
3571;SDS011;7958;53.024;12.970;2023-07-31T04:10:12;6.10;;;3.90;;
3571;SDS011;7958;53.024;12.970;2023-07-31T04:12:42;3.83;;;3.47;;
3571;SDS011;7958;53.024;12.970;2023-07-31T04:15:09;8.30;;;3.97;;
3571;SDS011;7958;53.024;12.970;2023-07-31T04:17:37;4.37;;;3.30;;
3571;SDS011;7958;53.024;12.970;2023-07-31T04:20:04;8.53;;;3.30;;
3571;SDS011;7958;53.024;12.970;2023-07-31T04:22:41;7.03;;;3.20;;
3571;SDS011;7958;53.024;12.970;2023-07-31T04:25:10;6.67;;;3.47;;
3571;SDS011;7958;53.024;12.970;2023-07-31T04:27:36;10.13;;;4.07;;
3571;SDS011;7958;53.024;12.970;2023-07-31T04:30:09;6.83;;;3.60;;
3571;SDS011;7958;53.024;12.970;2023-07-31T04:32:36;9.30;;;3.77;;
3571;SDS011;7958;53.024;12.970;2023-07-31T04:35:04;6.73;;;3.70;;
3571;SDS011;7958;53.024;12.970;2023-07-31T04:37:31;11.10;;;3.67;;
3571;SDS011;7958;53.024;12.970;2023-07-31T04:39:57;4.03;;;3.73;;
3571;SDS011;7958;53.024;12.970;2023-07-31T04:42:24;11.93;;;4.40;;
3571;SDS011;7958;53.024;12.970;2023-07-31T04:44:52;9.00;;;3.80;;
3571;SDS011;7958;53.024;12.970;2023-07-31T04:47:19;8.00;;;3.70;;
3571;SDS011;7958;53.024;12.970;2023-07-31T04:49:47;7.33;;;3.90;;
3571;SDS011;7958;53.024;12.970;2023-07-31T04:52:13;6.43;;;4.60;;
3571;SDS011;7958;53.024;12.970;2023-07-31T04:54:39;5.20;;;3.90;;
3571;SDS011;7958;53.024;12.970;2023-07-31T04:57:06;8.03;;;4.53;;
3571;SDS011;7958;53.024;12.970;2023-07-31T04:59:32;9.13;;;4.20;;
3571;SDS011;7958;53.024;12.970;2023-07-31T05:01:59;9.40;;;4.70;;
3571;SDS011;7958;53.024;12.970;2023-07-31T05:04:25;5.20;;;3.80;;
3571;SDS011;7958;53.024;12.970;2023-07-31T05:06:53;8.97;;;4.50;;
3571;SDS011;7958;53.024;12.970;2023-07-31T05:09:19;12.50;;;4.13;;
3571;SDS011;7958;53.024;12.970;2023-07-31T05:11:46;6.33;;;3.50;;
3571;SDS011;7958;53.024;12.970;2023-07-31T05:14:12;9.73;;;3.73;;
3571;SDS011;7958;53.024;12.970;2023-07-31T05:16:40;11.97;;;3.70;;
3571;SDS011;7958;53.024;12.970;2023-07-31T05:19:07;6.47;;;4.30;;
3571;SDS011;7958;53.024;12.970;2023-07-31T05:21:33;5.23;;;3.53;;
3571;SDS011;7958;53.024;12.970;2023-07-31T05:24:01;7.20;;;4.00;;
3571;SDS011;7958;53.024;12.970;2023-07-31T05:26:28;5.80;;;3.40;;
3571;SDS011;7958;53.024;12.970;2023-07-31T05:28:54;5.67;;;3.47;;
3571;SDS011;7958;53.024;12.970;2023-07-31T05:31:21;5.00;;;3.70;;
3571;SDS011;7958;53.024;12.970;2023-07-31T05:33:49;16.17;;;3.80;;
3571;SDS011;7958;53.024;12.970;2023-07-31T05:36:16;3.90;;;3.03;;
3571;SDS011;7958;53.024;12.970;2023-07-31T05:38:43;4.67;;;3.07;;
3571;SDS011;7958;53.024;12.970;2023-07-31T05:44:03;4.93;;;3.30;;
3571;SDS011;7958;53.024;12.970;2023-07-31T05:46:36;3.43;;;3.13;;
3571;SDS011;7958;53.024;12.970;2023-07-31T05:49:02;4.43;;;3.07;;
3571;SDS011;7958;53.024;12.970;2023-07-31T05:51:29;6.93;;;3.23;;
3571;SDS011;7958;53.024;12.970;2023-07-31T05:53:58;5.43;;;2.97;;
3571;SDS011;7958;53.024;12.970;2023-07-31T05:56:26;2.77;;;2.57;;
3571;SDS011;7958;53.024;12.970;2023-07-31T05:58:54;3.30;;;3.00;;
3571;SDS011;7958;53.024;12.970;2023-07-31T06:01:26;6.60;;;2.97;;
3571;SDS011;7958;53.024;12.970;2023-07-31T06:03:58;4.03;;;2.80;;
3571;SDS011;7958;53.024;12.970;2023-07-31T06:06:24;6.90;;;3.30;;
3571;SDS011;7958;53.024;12.970;2023-07-31T06:08:51;4.60;;;2.77;;
3571;SDS011;7958;53.024;12.970;2023-07-31T06:11:25;6.30;;;3.10;;
3571;SDS011;7958;53.024;12.970;2023-07-31T06:14:01;3.27;;;2.97;;
3571;SDS011;7958;53.024;12.970;2023-07-31T06:16:28;6.67;;;2.80;;
3571;SDS011;7958;53.024;12.970;2023-07-31T06:18:54;7.43;;;3.80;;
3571;SDS011;7958;53.024;12.970;2023-07-31T06:21:21;3.60;;;2.80;;
3571;SDS011;7958;53.024;12.970;2023-07-31T06:23:48;7.10;;;3.43;;
3571;SDS011;7958;53.024;12.970;2023-07-31T06:26:15;6.63;;;3.40;;
3571;SDS011;7958;53.024;12.970;2023-07-31T06:28:41;4.10;;;3.17;;
3571;SDS011;7958;53.024;12.970;2023-07-31T06:31:09;5.20;;;2.73;;
3571;SDS011;7958;53.024;12.970;2023-07-31T06:33:35;5.97;;;3.40;;
3571;SDS011;7958;53.024;12.970;2023-07-31T06:36:02;6.87;;;3.57;;
3571;SDS011;7958;53.024;12.970;2023-07-31T06:38:29;6.00;;;3.80;;
3571;SDS011;7958;53.024;12.970;2023-07-31T06:40:56;6.60;;;3.20;;
3571;SDS011;7958;53.024;12.970;2023-07-31T06:43:22;6.03;;;3.43;;
3571;SDS011;7958;53.024;12.970;2023-07-31T06:45:49;6.00;;;3.33;;
3571;SDS011;7958;53.024;12.970;2023-07-31T06:48:19;5.73;;;3.47;;
3571;SDS011;7958;53.024;12.970;2023-07-31T06:50:45;4.33;;;3.00;;
3571;SDS011;7958;53.024;12.970;2023-07-31T06:53:11;4.73;;;2.70;;
3571;SDS011;7958;53.024;12.970;2023-07-31T06:55:38;3.50;;;2.90;;
3571;SDS011;7958;53.024;12.970;2023-07-31T06:58:04;4.60;;;3.40;;
3571;SDS011;7958;53.024;12.970;2023-07-31T07:00:31;5.80;;;2.93;;
3571;SDS011;7958;53.024;12.970;2023-07-31T07:03:00;5.10;;;3.20;;
3571;SDS011;7958;53.024;12.970;2023-07-31T07:05:28;3.10;;;2.73;;
3571;SDS011;7958;53.024;12.970;2023-07-31T07:07:54;5.20;;;3.20;;
3571;SDS011;7958;53.024;12.970;2023-07-31T07:10:21;3.90;;;2.97;;
3571;SDS011;7958;53.024;12.970;2023-07-31T07:12:47;8.20;;;3.03;;
3571;SDS011;7958;53.024;12.970;2023-07-31T07:15:14;5.00;;;3.53;;
3571;SDS011;7958;53.024;12.970;2023-07-31T07:17:40;3.83;;;3.07;;
3571;SDS011;7958;53.024;12.970;2023-07-31T07:20:07;3.87;;;3.00;;
3571;SDS011;7958;53.024;12.970;2023-07-31T07:22:36;6.73;;;3.60;;
3571;SDS011;7958;53.024;12.970;2023-07-31T07:25:02;6.97;;;3.30;;
3571;SDS011;7958;53.024;12.970;2023-07-31T07:27:30;4.73;;;2.87;;
3571;SDS011;7958;53.024;12.970;2023-07-31T07:30:05;5.20;;;2.70;;
3571;SDS011;7958;53.024;12.970;2023-07-31T07:32:35;4.30;;;3.50;;
3571;SDS011;7958;53.024;12.970;2023-07-31T07:35:02;3.30;;;3.00;;
3571;SDS011;7958;53.024;12.970;2023-07-31T07:37:29;4.87;;;3.10;;
3571;SDS011;7958;53.024;12.970;2023-07-31T07:39:56;8.90;;;3.80;;
3571;SDS011;7958;53.024;12.970;2023-07-31T07:42:25;4.80;;;2.67;;
3571;SDS011;7958;53.024;12.970;2023-07-31T07:44:52;3.23;;;2.93;;
3571;SDS011;7958;53.024;12.970;2023-07-31T07:47:19;6.10;;;2.67;;
3571;SDS011;7958;53.024;12.970;2023-07-31T07:49:45;3.13;;;2.73;;
3571;SDS011;7958;53.024;12.970;2023-07-31T07:52:11;2.50;;;2.30;;
3571;SDS011;7958;53.024;12.970;2023-07-31T07:54:40;4.43;;;2.63;;
3571;SDS011;7958;53.024;12.970;2023-07-31T07:57:08;3.43;;;2.53;;
3571;SDS011;7958;53.024;12.970;2023-07-31T07:59:34;2.70;;;2.50;;
3571;SDS011;7958;53.024;12.970;2023-07-31T08:02:01;8.23;;;2.20;;
3571;SDS011;7958;53.024;12.970;2023-07-31T08:04:28;2.53;;;2.00;;
3571;SDS011;7958;53.024;12.970;2023-07-31T08:06:53;5.27;;;2.30;;
3571;SDS011;7958;53.024;12.970;2023-07-31T08:09:20;4.20;;;1.83;;
3571;SDS011;7958;53.024;12.970;2023-07-31T08:11:46;6.03;;;2.20;;
3571;SDS011;7958;53.024;12.970;2023-07-31T08:14:18;3.07;;;2.00;;
3571;SDS011;7958;53.024;12.970;2023-07-31T08:16:44;2.57;;;1.70;;
3571;SDS011;7958;53.024;12.970;2023-07-31T08:19:13;3.30;;;2.00;;
3571;SDS011;7958;53.024;12.970;2023-07-31T08:21:40;1.90;;;1.80;;
3571;SDS011;7958;53.024;12.970;2023-07-31T08:24:06;1.80;;;1.70;;
3571;SDS011;7958;53.024;12.970;2023-07-31T08:26:33;2.40;;;2.20;;
3571;SDS011;7958;53.024;12.970;2023-07-31T08:29:09;1.90;;;1.73;;
3571;SDS011;7958;53.024;12.970;2023-07-31T08:31:51;1.90;;;1.70;;
3571;SDS011;7958;53.024;12.970;2023-07-31T08:34:17;1.67;;;1.57;;
3571;SDS011;7958;53.024;12.970;2023-07-31T08:36:46;1.50;;;1.40;;
3571;SDS011;7958;53.024;12.970;2023-07-31T08:39:15;4.10;;;1.33;;
3571;SDS011;7958;53.024;12.970;2023-07-31T08:41:42;1.57;;;1.47;;
3571;SDS011;7958;53.024;12.970;2023-07-31T08:44:08;2.30;;;1.50;;
3571;SDS011;7958;53.024;12.970;2023-07-31T08:46:40;1.50;;;1.40;;
3571;SDS011;7958;53.024;12.970;2023-07-31T08:49:09;1.87;;;1.70;;
3571;SDS011;7958;53.024;12.970;2023-07-31T08:51:36;1.93;;;1.63;;
3571;SDS011;7958;53.024;12.970;2023-07-31T08:54:12;2.47;;;1.37;;
3571;SDS011;7958;53.024;12.970;2023-07-31T08:56:41;2.30;;;1.20;;
3571;SDS011;7958;53.024;12.970;2023-07-31T08:59:08;1.50;;;1.40;;
3571;SDS011;7958;53.024;12.970;2023-07-31T09:01:35;1.90;;;1.57;;
3571;SDS011;7958;53.024;12.970;2023-07-31T09:04:04;1.77;;;1.40;;
3571;SDS011;7958;53.024;12.970;2023-07-31T09:06:32;1.67;;;1.40;;
3571;SDS011;7958;53.024;12.970;2023-07-31T09:08:59;1.70;;;1.60;;
3571;SDS011;7958;53.024;12.970;2023-07-31T09:11:25;1.83;;;1.50;;
3571;SDS011;7958;53.024;12.970;2023-07-31T09:13:53;2.13;;;1.63;;
3571;SDS011;7958;53.024;12.970;2023-07-31T09:16:26;2.03;;;1.40;;
3571;SDS011;7958;53.024;12.970;2023-07-31T09:18:56;3.33;;;1.33;;
3571;SDS011;7958;53.024;12.970;2023-07-31T09:21:23;1.70;;;1.20;;
3571;SDS011;7958;53.024;12.970;2023-07-31T09:23:52;1.90;;;1.47;;
3571;SDS011;7958;53.024;12.970;2023-07-31T09:26:28;1.93;;;1.40;;
3571;SDS011;7958;53.024;12.970;2023-07-31T09:28:56;1.20;;;1.20;;
3571;SDS011;7958;53.024;12.970;2023-07-31T09:31:32;1.17;;;1.10;;
3571;SDS011;7958;53.024;12.970;2023-07-31T09:34:00;1.40;;;1.40;;
3571;SDS011;7958;53.024;12.970;2023-07-31T09:36:28;1.37;;;1.30;;
3571;SDS011;7958;53.024;12.970;2023-07-31T09:38:59;1.40;;;1.30;;
3571;SDS011;7958;53.024;12.970;2023-07-31T09:41:35;2.13;;;1.73;;
3571;SDS011;7958;53.024;12.970;2023-07-31T09:44:05;1.57;;;1.40;;
3571;SDS011;7958;53.024;12.970;2023-07-31T09:46:34;1.83;;;1.73;;
3571;SDS011;7958;53.024;12.970;2023-07-31T09:49:05;2.27;;;1.83;;
3571;SDS011;7958;53.024;12.970;2023-07-31T09:51:34;2.30;;;1.87;;
3571;SDS011;7958;53.024;12.970;2023-07-31T09:54:05;1.90;;;1.80;;
3571;SDS011;7958;53.024;12.970;2023-07-31T09:56:40;1.40;;;1.30;;
3571;SDS011;7958;53.024;12.970;2023-07-31T09:59:08;1.77;;;1.67;;
3571;SDS011;7958;53.024;12.970;2023-07-31T10:01:37;1.60;;;1.50;;
3571;SDS011;7958;53.024;12.970;2023-07-31T10:04:07;2.80;;;1.33;;
3571;SDS011;7958;53.024;12.970;2023-07-31T10:06:34;1.40;;;1.30;;
3571;SDS011;7958;53.024;12.970;2023-07-31T10:09:01;1.33;;;1.23;;
3571;SDS011;7958;53.024;12.970;2023-07-31T10:11:29;1.57;;;1.47;;
3571;SDS011;7958;53.024;12.970;2023-07-31T10:13:56;1.30;;;1.20;;
3571;SDS011;7958;53.024;12.970;2023-07-31T10:16:23;1.50;;;1.40;;
3571;SDS011;7958;53.024;12.970;2023-07-31T10:18:49;1.20;;;1.20;;
3571;SDS011;7958;53.024;12.970;2023-07-31T10:21:20;2.20;;;1.30;;
3571;SDS011;7958;53.024;12.970;2023-07-31T10:23:49;1.37;;;1.17;;
3571;SDS011;7958;53.024;12.970;2023-07-31T10:26:16;1.40;;;1.30;;
3571;SDS011;7958;53.024;12.970;2023-07-31T10:28:44;1.10;;;1.10;;
3571;SDS011;7958;53.024;12.970;2023-07-31T10:31:11;1.17;;;1.17;;
3571;SDS011;7958;53.024;12.970;2023-07-31T10:33:38;1.03;;;1.03;;
3571;SDS011;7958;53.024;12.970;2023-07-31T10:36:14;1.60;;;1.50;;
3571;SDS011;7958;53.024;12.970;2023-07-31T10:38:43;1.67;;;1.57;;
3571;SDS011;7958;53.024;12.970;2023-07-31T10:41:10;1.60;;;1.50;;
3571;SDS011;7958;53.024;12.970;2023-07-31T10:43:37;2.73;;;1.67;;
3571;SDS011;7958;53.024;12.970;2023-07-31T10:46:07;1.90;;;1.67;;
3571;SDS011;7958;53.024;12.970;2023-07-31T10:48:34;1.97;;;1.87;;
3571;SDS011;7958;53.024;12.970;2023-07-31T10:51:01;1.83;;;1.70;;
3571;SDS011;7958;53.024;12.970;2023-07-31T10:53:33;4.80;;;2.57;;
3571;SDS011;7958;53.024;12.970;2023-07-31T10:56:00;2.00;;;1.90;;
3571;SDS011;7958;53.024;12.970;2023-07-31T10:58:27;2.70;;;2.50;;
3571;SDS011;7958;53.024;12.970;2023-07-31T11:00:55;3.40;;;2.60;;
3571;SDS011;7958;53.024;12.970;2023-07-31T11:03:26;3.67;;;3.10;;
3571;SDS011;7958;53.024;12.970;2023-07-31T11:05:59;3.40;;;3.10;;
3571;SDS011;7958;53.024;12.970;2023-07-31T11:08:28;3.90;;;3.50;;
3571;SDS011;7958;53.024;12.970;2023-07-31T11:11:05;7.50;;;3.73;;
3571;SDS011;7958;53.024;12.970;2023-07-31T11:13:40;5.57;;;3.67;;
3571;SDS011;7958;53.024;12.970;2023-07-31T11:16:07;5.23;;;3.53;;
3571;SDS011;7958;53.024;12.970;2023-07-31T11:18:37;4.67;;;3.57;;
3571;SDS011;7958;53.024;12.970;2023-07-31T11:21:04;9.27;;;4.27;;
3571;SDS011;7958;53.024;12.970;2023-07-31T11:23:31;5.03;;;3.63;;
3571;SDS011;7958;53.024;12.970;2023-07-31T11:25:58;6.47;;;4.30;;
3571;SDS011;7958;53.024;12.970;2023-07-31T11:28:25;6.23;;;4.10;;
3571;SDS011;7958;53.024;12.970;2023-07-31T11:30:51;5.17;;;3.70;;
3571;SDS011;7958;53.024;12.970;2023-07-31T11:33:18;7.03;;;3.60;;
3571;SDS011;7958;53.024;12.970;2023-07-31T11:35:48;5.03;;;4.10;;
3571;SDS011;7958;53.024;12.970;2023-07-31T11:38:20;5.43;;;3.97;;
3571;SDS011;7958;53.024;12.970;2023-07-31T11:40:47;6.17;;;4.20;;
3571;SDS011;7958;53.024;12.970;2023-07-31T11:43:14;7.57;;;4.50;;
3571;SDS011;7958;53.024;12.970;2023-07-31T11:45:42;5.83;;;3.80;;
3571;SDS011;7958;53.024;12.970;2023-07-31T11:48:17;6.67;;;4.40;;
3571;SDS011;7958;53.024;12.970;2023-07-31T11:50:45;5.63;;;4.30;;
3571;SDS011;7958;53.024;12.970;2023-07-31T11:53:15;6.40;;;4.30;;
3571;SDS011;7958;53.024;12.970;2023-07-31T11:55:42;4.50;;;4.00;;
3571;SDS011;7958;53.024;12.970;2023-07-31T11:58:08;4.63;;;3.87;;
3571;SDS011;7958;53.024;12.970;2023-07-31T12:00:38;5.90;;;3.43;;
3571;SDS011;7958;53.024;12.970;2023-07-31T12:03:04;5.00;;;3.47;;
3571;SDS011;7958;53.024;12.970;2023-07-31T12:05:30;8.27;;;4.30;;
3571;SDS011;7958;53.024;12.970;2023-07-31T12:07:58;4.17;;;3.30;;
3571;SDS011;7958;53.024;12.970;2023-07-31T12:10:31;6.70;;;3.80;;
3571;SDS011;7958;53.024;12.970;2023-07-31T12:12:58;4.20;;;3.80;;
3571;SDS011;7958;53.024;12.970;2023-07-31T12:15:33;7.40;;;4.20;;
3571;SDS011;7958;53.024;12.970;2023-07-31T12:18:00;5.40;;;4.43;;
3571;SDS011;7958;53.024;12.970;2023-07-31T12:20:34;9.67;;;4.30;;
3571;SDS011;7958;53.024;12.970;2023-07-31T12:23:13;13.67;;;4.70;;
3571;SDS011;7958;53.024;12.970;2023-07-31T12:25:41;10.40;;;4.17;;
3571;SDS011;7958;53.024;12.970;2023-07-31T12:28:07;5.87;;;4.10;;
3571;SDS011;7958;53.024;12.970;2023-07-31T12:30:36;6.20;;;4.47;;
3571;SDS011;7958;53.024;12.970;2023-07-31T12:33:04;5.80;;;4.10;;
3571;SDS011;7958;53.024;12.970;2023-07-31T12:35:35;5.40;;;4.00;;
3571;SDS011;7958;53.024;12.970;2023-07-31T12:38:03;8.20;;;4.33;;
3571;SDS011;7958;53.024;12.970;2023-07-31T12:40:31;6.80;;;4.70;;
3571;SDS011;7958;53.024;12.970;2023-07-31T12:43:01;8.47;;;4.50;;
3571;SDS011;7958;53.024;12.970;2023-07-31T12:45:29;6.77;;;3.90;;
3571;SDS011;7958;53.024;12.970;2023-07-31T12:47:56;3.80;;;3.30;;
3571;SDS011;7958;53.024;12.970;2023-07-31T12:50:23;6.70;;;3.97;;
3571;SDS011;7958;53.024;12.970;2023-07-31T12:52:50;6.43;;;3.80;;
3571;SDS011;7958;53.024;12.970;2023-07-31T12:55:16;5.20;;;3.60;;
3571;SDS011;7958;53.024;12.970;2023-07-31T12:57:45;4.13;;;3.07;;
3571;SDS011;7958;53.024;12.970;2023-07-31T13:00:12;3.90;;;3.50;;
3571;SDS011;7958;53.024;12.970;2023-07-31T13:02:40;3.83;;;3.40;;
3571;SDS011;7958;53.024;12.970;2023-07-31T13:05:07;3.60;;;3.30;;
3571;SDS011;7958;53.024;12.970;2023-07-31T13:07:38;4.30;;;3.30;;
3571;SDS011;7958;53.024;12.970;2023-07-31T13:10:05;3.17;;;2.87;;
3571;SDS011;7958;53.024;12.970;2023-07-31T13:12:32;3.47;;;3.17;;
3571;SDS011;7958;53.024;12.970;2023-07-31T13:15:01;4.17;;;3.67;;
3571;SDS011;7958;53.024;12.970;2023-07-31T13:17:42;4.00;;;3.20;;
3571;SDS011;7958;53.024;12.970;2023-07-31T13:20:24;3.53;;;3.23;;
3571;SDS011;7958;53.024;12.970;2023-07-31T13:22:50;3.43;;;3.10;;
3571;SDS011;7958;53.024;12.970;2023-07-31T13:25:17;3.40;;;3.10;;
3571;SDS011;7958;53.024;12.970;2023-07-31T13:27:43;4.63;;;3.23;;
3571;SDS011;7958;53.024;12.970;2023-07-31T13:30:14;6.50;;;3.70;;
3571;SDS011;7958;53.024;12.970;2023-07-31T13:32:40;4.67;;;3.67;;
3571;SDS011;7958;53.024;12.970;2023-07-31T13:35:07;4.17;;;3.77;;
3571;SDS011;7958;53.024;12.970;2023-07-31T13:37:36;4.87;;;4.10;;
3571;SDS011;7958;53.024;12.970;2023-07-31T13:40:05;5.70;;;3.60;;
3571;SDS011;7958;53.024;12.970;2023-07-31T13:42:36;5.50;;;3.10;;
3571;SDS011;7958;53.024;12.970;2023-07-31T13:45:02;4.07;;;2.93;;
3571;SDS011;7958;53.024;12.970;2023-07-31T13:47:31;5.43;;;3.13;;
3571;SDS011;7958;53.024;12.970;2023-07-31T13:50:01;8.67;;;5.80;;
3571;SDS011;7958;53.024;12.970;2023-07-31T13:52:28;3.70;;;3.03;;
3571;SDS011;7958;53.024;12.970;2023-07-31T13:54:54;4.00;;;3.57;;
3571;SDS011;7958;53.024;12.970;2023-07-31T13:57:30;6.03;;;3.30;;
3571;SDS011;7958;53.024;12.970;2023-07-31T13:59:56;5.77;;;3.40;;
3571;SDS011;7958;53.024;12.970;2023-07-31T14:02:25;8.20;;;3.67;;
3571;SDS011;7958;53.024;12.970;2023-07-31T14:04:55;4.03;;;3.47;;
3571;SDS011;7958;53.024;12.970;2023-07-31T14:07:22;4.90;;;3.57;;
3571;SDS011;7958;53.024;12.970;2023-07-31T14:09:48;5.20;;;2.90;;
3571;SDS011;7958;53.024;12.970;2023-07-31T14:12:14;4.33;;;2.97;;
3571;SDS011;7958;53.024;12.970;2023-07-31T14:14:41;5.43;;;3.30;;
3571;SDS011;7958;53.024;12.970;2023-07-31T14:17:07;12.13;;;3.80;;
3571;SDS011;7958;53.024;12.970;2023-07-31T14:19:34;3.63;;;3.10;;
3571;SDS011;7958;53.024;12.970;2023-07-31T14:22:01;6.10;;;3.73;;
3571;SDS011;7958;53.024;12.970;2023-07-31T14:24:28;6.17;;;3.80;;
3571;SDS011;7958;53.024;12.970;2023-07-31T14:26:55;5.63;;;3.60;;
3571;SDS011;7958;53.024;12.970;2023-07-31T14:29:22;6.40;;;3.80;;
3571;SDS011;7958;53.024;12.970;2023-07-31T14:31:49;8.40;;;3.33;;
3571;SDS011;7958;53.024;12.970;2023-07-31T14:34:18;13.33;;;4.30;;
3571;SDS011;7958;53.024;12.970;2023-07-31T14:36:45;5.67;;;3.50;;
3571;SDS011;7958;53.024;12.970;2023-07-31T14:39:13;5.67;;;3.70;;
3571;SDS011;7958;53.024;12.970;2023-07-31T14:41:40;4.67;;;3.30;;
3571;SDS011;7958;53.024;12.970;2023-07-31T14:44:06;4.73;;;4.20;;
3571;SDS011;7958;53.024;12.970;2023-07-31T14:46:33;5.67;;;2.87;;
3571;SDS011;7958;53.024;12.970;2023-07-31T14:48:59;4.63;;;3.10;;
3571;SDS011;7958;53.024;12.970;2023-07-31T14:51:26;4.20;;;3.00;;
3571;SDS011;7958;53.024;12.970;2023-07-31T14:53:52;4.00;;;3.60;;
3571;SDS011;7958;53.024;12.970;2023-07-31T14:56:21;6.03;;;3.87;;
3571;SDS011;7958;53.024;12.970;2023-07-31T14:58:47;7.37;;;3.50;;
3571;SDS011;7958;53.024;12.970;2023-07-31T15:01:14;7.40;;;3.03;;
3571;SDS011;7958;53.024;12.970;2023-07-31T15:03:40;3.20;;;2.90;;
3571;SDS011;7958;53.024;12.970;2023-07-31T15:06:07;5.43;;;2.63;;
3571;SDS011;7958;53.024;12.970;2023-07-31T15:08:33;5.33;;;3.53;;
3571;SDS011;7958;53.024;12.970;2023-07-31T15:11:01;3.57;;;2.93;;